Time,TemperatureF,DewpointF,PressureIn,WindDirection,WindDirectionDegrees,WindSpeedMPH,WindSpeedGustMPH,Humidity,HourlyPrecipIn,Conditions,Clouds,dailyrainin,SoftwareType,DateUTC
2013-07-25 00:03:00,70.7,41.0,30.10,SSE,165,3.0,5.0,34,0.00,,SKC,0.00,VWS V12.07,2013-07-25 07:03:00,
2013-07-25 00:12:00,70.4,41.5,30.09,SSE,165,2.0,5.0,35,0.00,,SKC,0.00,VWS V12.07,2013-07-25 07:12:00,
2013-07-25 00:22:00,70.1,41.2,30.09,SSE,165,0.0,5.0,35,0.00,,SKC,0.00,VWS V12.07,2013-07-25 07:22:00,
2013-07-25 00:32:00,70.1,41.9,30.09,SSE,165,2.0,4.0,36,0.00,,SKC,0.00,VWS V12.07,2013-07-25 07:32:00,
2013-07-25 00:42:00,69.7,40.8,30.09,SSE,165,0.0,4.0,35,0.00,,SKC,0.00,VWS V12.07,2013-07-25 07:42:00,
2013-07-25 00:52:00,68.5,42.6,30.10,SSW,195,6.0,8.0,39,0.00,,SKC,0.00,VWS V12.07,2013-07-25 07:52:00,
2013-07-25 01:03:00,68.2,43.0,30.10,SSW,210,5.0,7.0,40,0.00,,SKC,0.00,VWS V12.07,2013-07-25 08:03:00,
2013-07-25 01:12:00,68.4,41.8,30.09,SSW,210,5.0,7.0,38,0.00,,SKC,0.00,VWS V12.07,2013-07-25 08:12:00,
2013-07-25 01:22:00,68.5,42.6,30.11,SSW,210,4.0,7.0,39,0.00,,SKC,0.00,VWS V12.07,2013-07-25 08:22:00,
2013-07-25 01:32:00,67.9,42.1,30.10,SSW,210,6.0,7.0,39,0.00,,SKC,0.00,VWS V12.07,2013-07-25 08:32:00,
2013-07-25 01:42:00,65.2,42.2,30.11,SSW,213,6.0,10.0,43,0.00,,SKC,0.00,VWS V12.07,2013-07-25 08:42:00,
2013-07-25 01:52:00,65.5,43.0,30.11,SW,216,2.0,10.0,44,0.00,,SKC,0.00,VWS V12.07,2013-07-25 08:52:00,
2013-07-25 02:02:00,65.6,43.1,30.11,SW,221,3.0,5.0,44,0.00,,SKC,0.00,VWS V12.07,2013-07-25 09:02:00,
2013-07-25 02:12:00,65.8,43.3,30.11,SW,227,5.0,7.0,44,0.00,,SKC,0.00,VWS V12.07,2013-07-25 09:12:00,
2013-07-25 02:22:00,65.8,43.3,30.10,SW,236,6.0,7.0,44,0.00,,SKC,0.00,VWS V12.07,2013-07-25 09:22:00,
2013-07-25 02:32:00,65.0,43.7,30.10,WSW,237,3.0,6.0,46,0.00,,SKC,0.00,VWS V12.07,2013-07-25 09:32:00,
2013-07-25 02:42:00,64.2,43.6,30.10,WSW,237,2.0,6.0,47,0.00,,SKC,0.00,VWS V12.07,2013-07-25 09:42:00,
2013-07-25 02:52:00,64.0,43.4,30.11,WSW,237,0.0,6.0,47,0.00,,SKC,0.00,VWS V12.07,2013-07-25 09:52:00,
2013-07-25 03:02:00,63.5,42.9,30.09,WSW,237,2.0,5.0,47,0.00,,SKC,0.00,VWS V12.07,2013-07-25 10:02:00,
2013-07-25 03:12:00,62.9,43.5,30.10,WSW,243,1.0,7.0,49,0.00,,SKC,0.00,VWS V12.07,2013-07-25 10:12:00,
2013-07-25 03:22:00,63.9,43.8,30.10,WSW,243,2.0,7.0,48,0.00,,SKC,0.00,VWS V12.07,2013-07-25 10:22:00,
2013-07-25 03:32:00,63.7,43.1,30.09,WSW,239,5.0,7.0,47,0.00,,SKC,0.00,VWS V12.07,2013-07-25 10:32:00,
2013-07-25 03:42:00,62.3,43.4,30.11,SW,229,4.0,9.0,50,0.00,,SKC,0.00,VWS V12.07,2013-07-25 10:42:00,
2013-07-25 03:52:00,61.3,43.0,30.09,WSW,238,5.0,9.0,51,0.00,,SKC,0.00,VWS V12.07,2013-07-25 10:52:00,
2013-07-25 04:02:00,61.2,43.0,30.10,WSW,246,5.0,7.0,51,0.00,,SKC,0.00,VWS V12.07,2013-07-25 11:02:00,
2013-07-25 04:12:00,61.5,42.2,30.10,WSW,245,2.0,7.0,49,0.00,,SKC,0.00,VWS V12.07,2013-07-25 11:12:00,
2013-07-25 04:22:00,61.4,42.1,30.10,WSW,243,2.0,7.0,49,0.00,,SKC,0.00,VWS V12.07,2013-07-25 11:22:00,
2013-07-25 04:32:00,61.3,42.0,30.09,SW,229,3.0,7.0,49,0.00,,SKC,0.00,VWS V12.07,2013-07-25 11:32:00,
2013-07-25 04:42:00,60.7,41.5,30.10,SW,229,5.0,7.0,49,0.00,,SKC,0.00,VWS V12.07,2013-07-25 11:42:00,
2013-07-25 04:52:00,60.2,42.5,30.10,SW,231,5.0,8.0,52,0.00,,SKC,0.00,VWS V12.07,2013-07-25 11:52:00,
2013-07-25 05:02:00,60.7,42.5,30.11,SW,228,7.0,9.0,51,0.00,,SKC,0.00,VWS V12.07,2013-07-25 12:02:00,
2013-07-25 05:12:00,60.7,42.5,30.09,SW,223,7.0,10.0,51,0.00,,SKC,0.00,VWS V12.07,2013-07-25 12:12:00,
2013-07-25 05:22:00,59.9,42.2,30.10,SW,218,9.0,14.0,52,0.00,,SKC,0.00,VWS V12.07,2013-07-25 12:22:00,
2013-07-25 05:32:00,59.7,42.1,30.10,SW,217,9.0,14.0,52,0.00,,SKC,0.00,VWS V12.07,2013-07-25 12:32:00,
2013-07-25 05:42:00,59.3,41.7,30.11,SW,216,7.0,15.0,52,0.00,,SKC,0.00,VWS V12.07,2013-07-25 12:42:00,
2013-07-25 05:52:00,59.3,42.7,30.10,SW,225,12.0,16.0,54,0.00,,SKC,0.00,VWS V12.07,2013-07-25 12:52:00,
2013-07-25 06:02:00,59.8,43.1,30.11,SW,225,8.0,14.0,54,0.00,,SKC,0.00,VWS V12.07,2013-07-25 13:02:00,
2013-07-25 06:12:00,59.9,43.2,30.11,SW,216,9.0,16.0,54,0.00,,SKC,0.00,VWS V12.07,2013-07-25 13:12:00,
2013-07-25 06:22:00,59.5,43.3,30.10,SW,224,12.0,16.0,55,0.00,,SKC,0.00,VWS V12.07,2013-07-25 13:22:00,
2013-07-25 06:32:00,59.3,43.2,30.11,SW,222,6.0,13.0,55,0.00,,SKC,0.00,VWS V12.07,2013-07-25 13:32:00,
2013-07-25 06:42:00,59.5,43.3,30.11,SW,214,12.0,14.0,55,0.00,,SKC,0.00,VWS V12.07,2013-07-25 13:42:00,
2013-07-25 06:52:00,59.8,44.1,30.11,SSW,213,7.0,14.0,56,0.00,,SKC,0.00,VWS V12.07,2013-07-25 13:52:00,
2013-07-25 07:02:00,60.1,44.8,30.12,SW,219,10.0,13.0,57,0.00,,SKC,0.00,VWS V12.07,2013-07-25 14:02:00,
2013-07-25 07:12:00,60.6,44.8,30.11,SW,225,10.0,14.0,56,0.00,,SKC,0.00,VWS V12.07,2013-07-25 14:12:00,
2013-07-25 07:22:00,61.3,45.0,30.11,SSW,210,11.0,14.0,55,0.00,,SKC,0.00,VWS V12.07,2013-07-25 14:22:00,
2013-07-25 07:32:00,62.3,45.5,30.12,SW,217,9.0,14.0,54,0.00,,SKC,0.00,VWS V12.07,2013-07-25 14:32:00,
2013-07-25 07:42:00,63.0,46.1,30.11,SW,231,4.0,15.0,54,0.00,,SKC,0.00,VWS V12.07,2013-07-25 14:42:00,
2013-07-25 07:52:00,64.0,47.0,30.12,SSW,192,7.0,15.0,54,0.00,,SKC,0.00,VWS V12.07,2013-07-25 14:52:00,
2013-07-25 08:02:00,64.9,46.4,30.12,SSW,207,13.0,23.0,51,0.00,,SKC,0.00,VWS V12.07,2013-07-25 15:02:00,
2013-07-25 08:12:00,65.3,46.7,30.12,SW,216,11.0,23.0,51,0.00,,SKC,0.00,VWS V12.07,2013-07-25 15:12:00,
2013-07-25 08:22:00,66.3,47.1,30.12,SSW,196,11.0,23.0,50,0.00,,SKC,0.00,VWS V12.07,2013-07-25 15:22:00,
2013-07-25 08:32:00,67.3,47.0,30.13,SSW,208,9.0,17.0,48,0.00,,SKC,0.00,VWS V12.07,2013-07-25 15:32:00,
2013-07-25 08:42:00,67.9,47.0,30.12,SSW,211,9.0,17.0,47,0.00,,SKC,0.00,VWS V12.07,2013-07-25 15:42:00,
2013-07-25 08:52:00,69.0,47.4,30.13,SW,226,2.0,17.0,46,0.00,,SKC,0.00,VWS V12.07,2013-07-25 15:52:00,
2013-07-25 09:02:00,70.6,47.0,30.14,South,181,3.0,9.0,43,0.00,,SKC,0.00,VWS V12.07,2013-07-25 16:02:00,
2013-07-25 09:12:00,71.9,48.2,30.13,SSW,205,4.0,9.0,43,0.00,,SKC,0.00,VWS V12.07,2013-07-25 16:12:00,
2013-07-25 09:22:00,72.4,47.4,30.15,SSW,207,3.0,12.0,41,0.00,,SKC,0.00,VWS V12.07,2013-07-25 16:22:00,
2013-07-25 09:32:00,73.6,47.1,30.14,SW,222,3.0,11.0,39,0.00,,SKC,0.00,VWS V12.07,2013-07-25 16:32:00,
2013-07-25 09:42:00,74.4,46.5,30.14,South,183,7.0,11.0,37,0.00,,SKC,0.00,VWS V12.07,2013-07-25 16:42:00,
2013-07-25 09:52:00,75.5,46.7,30.13,SSW,195,11.0,15.0,36,0.00,,SKC,0.00,VWS V12.07,2013-07-25 16:52:00,
2013-07-25 10:02:00,76.1,44.9,30.14,SW,217,5.0,8.0,33,0.00,,SKC,0.00,VWS V12.07,2013-07-25 17:02:00,
2013-07-25 10:12:00,77.5,44.5,30.14,SSW,199,4.0,10.0,31,0.00,,SKC,0.00,VWS V12.07,2013-07-25 17:12:00,
2013-07-25 10:22:00,78.5,42.7,30.14,SW,222,7.0,12.0,28,0.00,,SKC,0.00,VWS V12.07,2013-07-25 17:22:00,
2013-07-25 10:32:00,79.1,40.3,30.12,SSW,196,10.0,10.0,25,0.00,,SKC,0.00,VWS V12.07,2013-07-25 17:32:00,
2013-07-25 10:42:00,79.8,40.9,30.14,SSW,193,4.0,14.0,25,0.00,,SKC,0.00,VWS V12.07,2013-07-25 17:42:00,
2013-07-25 10:52:00,81.1,40.9,30.13,South,190,6.0,14.0,24,0.00,,SKC,0.00,VWS V12.07,2013-07-25 17:52:00,
2013-07-25 11:02:00,82.3,33.2,30.12,South,172,4.0,7.0,17,0.00,,SKC,0.00,VWS V12.07,2013-07-25 18:02:00,
2013-07-25 11:12:00,82.8,33.6,30.12,South,191,0.0,12.0,17,0.00,,SKC,0.00,VWS V12.07,2013-07-25 18:12:00,
2013-07-25 11:22:00,84.2,31.6,30.13,South,181,5.0,12.0,15,0.00,,SKC,0.00,VWS V12.07,2013-07-25 18:22:00,
2013-07-25 11:32:00,84.6,31.9,30.13,South,190,0.0,3.0,15,0.00,,SKC,0.00,VWS V12.07,2013-07-25 18:32:00,
2013-07-25 11:42:00,85.5,30.9,30.13,South,184,2.0,6.0,14,0.00,,SKC,0.00,VWS V12.07,2013-07-25 18:42:00,
2013-07-25 11:52:00,86.8,30.1,30.12,South,185,0.0,7.0,13,0.00,,SKC,0.00,VWS V12.07,2013-07-25 18:52:00,
2013-07-25 12:02:00,87.7,34.4,30.12,South,179,6.0,7.0,15,0.00,,SKC,0.00,VWS V12.07,2013-07-25 19:02:00,
2013-07-25 12:12:00,88.3,33.1,30.12,WNW,288,0.0,9.0,14,0.00,,SKC,0.00,VWS V12.07,2013-07-25 19:12:00,
2013-07-25 12:22:00,88.1,29.2,30.11,East,91,3.0,9.0,12,0.00,,SKC,0.00,VWS V12.07,2013-07-25 19:22:00,
2013-07-25 12:32:00,87.9,31.0,30.12,NNE,14,9.0,11.0,13,0.00,,SKC,0.00,VWS V12.07,2013-07-25 19:32:00,
2013-07-25 12:42:00,87.5,32.5,30.11,NE,34,7.0,15.0,14,0.00,,SKC,0.00,VWS V12.07,2013-07-25 19:42:00,
2013-07-25 12:52:00,88.3,31.3,30.11,NE,50,9.0,17.0,13,0.00,,SKC,0.00,VWS V12.07,2013-07-25 19:52:00,
2013-07-25 13:02:00,88.7,33.4,30.10,NE,55,11.0,18.0,14,0.00,,SKC,0.00,VWS V12.07,2013-07-25 20:02:00,
2013-07-25 13:12:00,88.3,34.8,30.10,NNE,22,14.0,18.0,15,0.00,,SKC,0.00,VWS V12.07,2013-07-25 20:12:00,
2013-07-25 13:22:00,88.7,31.6,30.11,NE,35,8.0,19.0,13,0.00,,SKC,0.00,VWS V12.07,2013-07-25 20:22:00,
2013-07-25 13:32:00,88.5,35.0,30.10,East,101,9.0,14.0,15,0.00,,SKC,0.00,VWS V12.07,2013-07-25 20:32:00,
2013-07-25 13:42:00,88.4,34.9,30.09,North,3,6.0,23.0,15,0.00,,SKC,0.00,VWS V12.07,2013-07-25 20:42:00,
2013-07-25 13:52:00,88.9,37.0,30.10,North,352,5.0,23.0,16,0.00,,SKC,0.00,VWS V12.07,2013-07-25 20:52:00,
2013-07-25 14:02:00,88.5,36.6,30.10,North,0,9.0,11.0,16,0.00,,SKC,0.00,VWS V12.07,2013-07-25 21:02:00,
2013-07-25 14:12:00,89.3,35.6,30.10,ESE,106,7.0,15.0,15,0.00,,SKC,0.00,VWS V12.07,2013-07-25 21:12:00,
2013-07-25 14:22:00,89.5,35.8,30.08,North,359,6.0,15.0,15,0.00,,SKC,0.00,VWS V12.07,2013-07-25 21:22:00,
2013-07-25 14:32:00,89.3,35.6,30.09,North,1,0.0,14.0,15,0.00,,SKC,0.00,VWS V12.07,2013-07-25 21:32:00,
2013-07-25 14:42:00,89.4,37.3,30.10,North,0,0.0,22.0,16,0.00,,SKC,0.00,VWS V12.07,2013-07-25 21:42:00,
2013-07-25 14:52:00,89.4,38.9,30.08,NNE,13,0.0,22.0,17,0.00,,SKC,0.00,VWS V12.07,2013-07-25 21:52:00,
2013-07-25 15:02:00,89.9,37.8,30.09,ENE,60,0.0,0.0,16,0.00,,SKC,0.00,VWS V12.07,2013-07-25 22:02:00,
2013-07-25 15:12:00,89.9,37.8,30.10,North,350,0.0,20.0,16,0.00,,SKC,0.00,VWS V12.07,2013-07-25 22:12:00,
2013-07-25 15:22:00,89.1,37.1,30.09,North,0,3.0,20.0,16,0.00,,SKC,0.00,VWS V12.07,2013-07-25 22:22:00,
2013-07-25 15:32:00,88.9,35.3,30.09,North,359,4.0,14.0,15,0.00,,SKC,0.00,VWS V12.07,2013-07-25 22:32:00,
2013-07-25 15:42:00,89.3,35.6,30.08,NE,41,7.0,19.0,15,0.00,,SKC,0.00,VWS V12.07,2013-07-25 22:42:00,
2013-07-25 15:52:00,89.3,37.3,30.09,NNE,20,0.0,19.0,16,0.00,,SKC,0.00,VWS V12.07,2013-07-25 22:52:00,
2013-07-25 16:02:00,89.6,39.1,30.08,NNE,26,12.0,14.0,17,0.00,,SKC,0.00,VWS V12.07,2013-07-25 23:02:00,
2013-07-25 16:12:00,89.1,38.7,30.10,North,4,0.0,16.0,17,0.00,,SKC,0.00,VWS V12.07,2013-07-25 23:12:00,
2013-07-25 16:22:00,88.9,38.5,30.09,North,353,9.0,16.0,17,0.00,,SKC,0.00,VWS V12.07,2013-07-25 23:22:00,
2013-07-25 16:32:00,88.9,38.5,30.08,NNW,344,16.0,16.0,17,0.00,,SKC,0.00,VWS V12.07,2013-07-25 23:32:00,
2013-07-25 16:42:00,88.5,39.6,30.08,NNE,17,9.0,24.0,18,0.00,,SKC,0.00,VWS V12.07,2013-07-25 23:42:00,
2013-07-25 16:52:00,88.5,39.6,30.08,North,352,12.0,24.0,18,0.00,,SKC,0.00,VWS V12.07,2013-07-25 23:52:00,
2013-07-25 17:02:00,88.3,38.0,30.08,NNE,26,11.0,19.0,17,0.00,,SKC,0.00,VWS V12.07,2013-07-26 00:02:00,
2013-07-25 17:12:00,88.3,39.5,30.08,NNE,14,11.0,19.0,18,0.00,,SKC,0.00,VWS V12.07,2013-07-26 00:12:00,
2013-07-25 17:22:00,88.1,39.3,30.09,North,359,12.0,20.0,18,0.00,,SKC,0.00,VWS V12.07,2013-07-26 00:22:00,
2013-07-25 17:32:00,88.5,39.6,30.08,NE,45,13.0,23.0,18,0.00,,SKC,0.00,VWS V12.07,2013-07-26 00:32:00,
2013-07-25 17:42:00,88.9,41.3,30.07,North,349,19.0,24.0,19,0.00,,SKC,0.00,VWS V12.07,2013-07-26 00:42:00,
2013-07-25 17:52:00,89.1,40.1,30.07,NE,47,9.0,24.0,18,0.00,,SKC,0.00,VWS V12.07,2013-07-26 00:52:00,
2013-07-25 18:02:00,89.0,40.0,30.09,North,354,14.0,21.0,18,0.00,,SKC,0.00,VWS V12.07,2013-07-26 01:02:00,
2013-07-25 18:12:00,88.8,39.9,30.07,North,10,0.0,24.0,18,0.00,,SKC,0.00,VWS V12.07,2013-07-26 01:12:00,
2013-07-25 18:22:00,89.1,41.5,30.07,North,353,14.0,24.0,19,0.00,,SKC,0.00,VWS V12.07,2013-07-26 01:22:00,
2013-07-25 18:32:00,88.6,41.1,30.07,NNE,18,15.0,21.0,19,0.00,,SKC,0.00,VWS V12.07,2013-07-26 01:32:00,
2013-07-25 18:42:00,88.3,40.9,30.07,North,356,16.0,24.0,19,0.00,,SKC,0.00,VWS V12.07,2013-07-26 01:42:00,
2013-07-25 18:52:00,88.3,40.9,30.07,NNW,342,10.0,25.0,19,0.00,,SKC,0.00,VWS V12.07,2013-07-26 01:52:00,
2013-07-25 19:02:00,88.1,40.7,30.08,North,3,13.0,21.0,19,0.00,,SKC,0.00,VWS V12.07,2013-07-26 02:02:00,
2013-07-25 19:12:00,87.6,41.6,30.09,North,10,18.0,21.0,20,0.00,,SKC,0.00,VWS V12.07,2013-07-26 02:12:00,
2013-07-25 19:22:00,87.3,42.6,30.10,NNW,338,8.0,21.0,21,0.00,,SKC,0.00,VWS V12.07,2013-07-26 02:22:00,
2013-07-25 19:32:00,86.8,42.2,30.09,NNW,346,15.0,19.0,21,0.00,,SKC,0.00,VWS V12.07,2013-07-26 02:32:00,
2013-07-25 19:42:00,86.4,41.9,30.09,North,359,0.0,21.0,21,0.00,,SKC,0.00,VWS V12.07,2013-07-26 02:42:00,
2013-07-25 19:52:00,86.0,34.6,30.10,NNE,14,13.0,21.0,16,0.00,,SKC,0.00,VWS V12.07,2013-07-26 02:52:00,
2013-07-25 20:02:00,85.6,32.7,30.10,NNE,30,10.0,16.0,15,0.00,,SKC,0.00,VWS V12.07,2013-07-26 03:02:00,
2013-07-25 20:12:00,85.2,32.4,30.10,NNE,20,7.0,16.0,15,0.00,,SKC,0.00,VWS V12.07,2013-07-26 03:12:00,
2013-07-25 20:22:00,84.4,34.9,30.10,North,10,7.0,16.0,17,0.00,,SKC,0.00,VWS V12.07,2013-07-26 03:22:00,
2013-07-25 20:32:00,83.6,34.2,30.11,NNE,24,8.0,12.0,17,0.00,,SKC,0.00,VWS V12.07,2013-07-26 03:32:00,
2013-07-25 20:42:00,82.9,35.1,30.10,NNE,16,0.0,13.0,18,0.00,,SKC,0.00,VWS V12.07,2013-07-26 03:42:00,
2013-07-25 20:52:00,82.2,34.5,30.11,NNE,17,12.0,13.0,18,0.00,,SKC,0.00,VWS V12.07,2013-07-26 03:52:00,
2013-07-25 21:02:00,81.7,35.5,30.13,NNE,31,13.0,14.0,19,0.00,,SKC,0.00,VWS V12.07,2013-07-26 04:02:00,
2013-07-25 21:12:00,80.9,34.8,30.12,NNE,18,9.0,14.0,19,0.00,,SKC,0.00,VWS V12.07,2013-07-26 04:12:00,
2013-07-25 21:22:00,80.6,34.6,30.12,NNE,18,9.0,16.0,19,0.00,,SKC,0.00,VWS V12.07,2013-07-26 04:22:00,
2013-07-25 21:32:00,79.9,34.0,30.13,North,1,12.0,13.0,19,0.00,,SKC,0.00,VWS V12.07,2013-07-26 04:32:00,
2013-07-25 21:42:00,78.9,33.2,30.13,NNE,19,3.0,15.0,19,0.00,,SKC,0.00,VWS V12.07,2013-07-26 04:42:00,
2013-07-25 21:52:00,78.5,35.4,30.14,North,8,1.0,15.0,21,0.00,,SKC,0.00,VWS V12.07,2013-07-26 04:52:00,
2013-07-25 22:02:00,77.9,34.9,30.14,North,8,2.0,5.0,21,0.00,,SKC,0.00,VWS V12.07,2013-07-26 05:02:00,
2013-07-25 22:12:00,76.5,33.7,30.15,North,5,0.0,6.0,21,0.00,,SKC,0.00,VWS V12.07,2013-07-26 05:12:00,
2013-07-25 22:22:00,75.7,35.3,30.14,North,5,0.0,6.0,23,0.00,,SKC,0.00,VWS V12.07,2013-07-26 05:22:00,
2013-07-25 22:32:00,76.2,33.5,30.14,North,8,4.0,7.0,21,0.00,,SKC,0.00,VWS V12.07,2013-07-26 05:32:00,
2013-07-25 22:42:00,75.9,34.4,30.15,North,1,5.0,7.0,22,0.00,,SKC,0.00,VWS V12.07,2013-07-26 05:42:00,
2013-07-25 22:52:00,73.8,34.8,30.15,North,352,4.0,7.0,24,0.00,,SKC,0.00,VWS V12.07,2013-07-26 05:52:00,
2013-07-25 23:02:00,72.4,35.6,30.16,NW,324,6.0,7.0,26,0.00,,SKC,0.00,VWS V12.07,2013-07-26 06:02:00,
2013-07-25 23:12:00,70.4,34.9,30.13,NW,305,6.0,7.0,27,0.00,,SKC,0.00,VWS V12.07,2013-07-26 06:12:00,
2013-07-25 23:22:00,71.9,35.2,30.13,NW,304,5.0,7.0,26,0.00,,SKC,0.00,VWS V12.07,2013-07-26 06:22:00,
2013-07-25 23:32:00,72.0,34.3,30.14,WNW,298,3.0,5.0,25,0.00,,SKC,0.00,VWS V12.07,2013-07-26 06:32:00,
2013-07-25 23:42:00,71.4,32.8,30.15,West,268,5.0,7.0,24,0.00,,SKC,0.00,VWS V12.07,2013-07-26 06:42:00,
2013-07-25 23:52:00,71.8,32.0,30.14,West,278,5.0,7.0,23,0.00,,SKC,0.00,VWS V12.07,2013-07-26 06:52:00,